sensor_id;sensor_type;location;lat;lon;timestamp;pressure;altitude;pressure_sealevel;temperature;humidity
18569;BME280;14780;48.316;-1.050;2023-07-08T00:01:41;98656.84;;;27.69;44.40
18569;BME280;14780;48.316;-1.050;2023-07-08T00:04:26;98660.72;;;27.68;44.40
18569;BME280;14780;48.316;-1.050;2023-07-08T00:07:13;98662.63;;;27.68;44.71
18569;BME280;14780;48.316;-1.050;2023-07-08T00:10:01;98673.13;;;27.66;44.35
18569;BME280;14780;48.316;-1.050;2023-07-08T00:12:47;98663.13;;;27.70;44.41
18569;BME280;14780;48.316;-1.050;2023-07-08T00:15:33;98658.06;;;27.63;44.56
18569;BME280;14780;48.316;-1.050;2023-07-08T00:18:18;98650.94;;;27.62;44.55
18569;BME280;14780;48.316;-1.050;2023-07-08T00:21:08;98657.44;;;27.66;44.57
18569;BME280;14780;48.316;-1.050;2023-07-08T00:23:53;98650.31;;;27.65;44.50
18569;BME280;14780;48.316;-1.050;2023-07-08T00:26:39;98652.56;;;27.63;44.48
18569;BME280;14780;48.316;-1.050;2023-07-08T00:29:24;98653.78;;;27.57;44.47
18569;BME280;14780;48.316;-1.050;2023-07-08T00:32:14;98651.75;;;27.63;44.37
18569;BME280;14780;48.316;-1.050;2023-07-08T00:34:59;98651.56;;;27.59;44.51
18569;BME280;14780;48.316;-1.050;2023-07-08T00:37:44;98656.25;;;27.59;44.50
18569;BME280;14780;48.316;-1.050;2023-07-08T00:40:32;98657.06;;;27.59;44.39
18569;BME280;14780;48.316;-1.050;2023-07-08T00:43:18;98652.81;;;27.53;44.53
18569;BME280;14780;48.316;-1.050;2023-07-08T00:51:52;98655.41;;;27.58;44.51
18569;BME280;14780;48.316;-1.050;2023-07-08T00:54:37;98662.16;;;27.52;44.70
18569;BME280;14780;48.316;-1.050;2023-07-08T00:57:23;98662.66;;;27.54;44.28
18569;BME280;14780;48.316;-1.050;2023-07-08T01:00:12;98667.66;;;27.52;44.47
18569;BME280;14780;48.316;-1.050;2023-07-08T01:03:00;98675.56;;;27.54;44.49
18569;BME280;14780;48.316;-1.050;2023-07-08T01:05:46;98682.91;;;27.58;44.36
18569;BME280;14780;48.316;-1.050;2023-07-08T01:08:31;98690.66;;;27.56;44.36
18569;BME280;14780;48.316;-1.050;2023-07-08T01:11:17;98686.16;;;27.47;44.56
18569;BME280;14780;48.316;-1.050;2023-07-08T01:14:02;98692.47;;;27.47;44.53
18569;BME280;14780;48.316;-1.050;2023-07-08T01:16:48;98692.06;;;27.54;44.37
18569;BME280;14780;48.316;-1.050;2023-07-08T01:19:34;98696.34;;;27.46;44.50
18569;BME280;14780;48.316;-1.050;2023-07-08T01:22:19;98719.34;;;27.50;44.34
18569;BME280;14780;48.316;-1.050;2023-07-08T01:25:05;98711.09;;;27.50;44.42
18569;BME280;14780;48.316;-1.050;2023-07-08T01:27:54;98705.72;;;27.45;44.37
18569;BME280;14780;48.316;-1.050;2023-07-08T01:30:41;98716.19;;;27.43;44.45
18569;BME280;14780;48.316;-1.050;2023-07-08T01:33:27;98735.75;;;27.42;44.43
18569;BME280;14780;48.316;-1.050;2023-07-08T01:36:12;98742.88;;;27.43;44.49
18569;BME280;14780;48.316;-1.050;2023-07-08T01:38:57;98750.28;;;27.42;44.27
18569;BME280;14780;48.316;-1.050;2023-07-08T01:41:45;98753.03;;;27.42;44.02
18569;BME280;14780;48.316;-1.050;2023-07-08T01:44:33;98747.25;;;27.44;44.14
18569;BME280;14780;48.316;-1.050;2023-07-08T01:47:20;98741.81;;;27.39;44.44
18569;BME280;14780;48.316;-1.050;2023-07-08T01:50:07;98749.78;;;27.40;44.43
18569;BME280;14780;48.316;-1.050;2023-07-08T01:52:56;98745.91;;;27.41;44.38
18569;BME280;14780;48.316;-1.050;2023-07-08T01:55:41;98749.69;;;27.45;44.09
18569;BME280;14780;48.316;-1.050;2023-07-08T01:58:26;98753.84;;;27.43;44.12
18569;BME280;14780;48.316;-1.050;2023-07-08T02:01:10;98760.16;;;27.43;44.22
18569;BME280;14780;48.316;-1.050;2023-07-08T02:03:55;98752.53;;;27.40;44.18
18569;BME280;14780;48.316;-1.050;2023-07-08T02:06:40;98763.31;;;27.50;44.22
18569;BME280;14780;48.316;-1.050;2023-07-08T02:09:25;98756.81;;;27.46;44.19
18569;BME280;14780;48.316;-1.050;2023-07-08T02:12:10;98741.63;;;27.35;44.44
18569;BME280;14780;48.316;-1.050;2023-07-08T02:14:55;98743.88;;;27.33;44.57
18569;BME280;14780;48.316;-1.050;2023-07-08T02:17:40;98733.59;;;27.39;44.40
18569;BME280;14780;48.316;-1.050;2023-07-08T02:20:24;98741.03;;;27.38;44.26
18569;BME280;14780;48.316;-1.050;2023-07-08T02:23:09;98725.34;;;27.39;44.27
18569;BME280;14780;48.316;-1.050;2023-07-08T02:25:54;98725.75;;;27.32;44.45
18569;BME280;14780;48.316;-1.050;2023-07-08T02:28:40;98722.59;;;27.39;44.28
18569;BME280;14780;48.316;-1.050;2023-07-08T02:31:25;98732.88;;;27.33;44.44
18569;BME280;14780;48.316;-1.050;2023-07-08T02:34:10;98735.41;;;27.30;44.58
18569;BME280;14780;48.316;-1.050;2023-07-08T02:36:54;98734.19;;;27.36;44.27
18569;BME280;14780;48.316;-1.050;2023-07-08T02:39:40;98749.34;;;27.33;44.27
18569;BME280;14780;48.316;-1.050;2023-07-08T02:42:25;98747.19;;;27.30;44.31
18569;BME280;14780;48.316;-1.050;2023-07-08T02:45:12;98749.75;;;27.27;44.52
18569;BME280;14780;48.316;-1.050;2023-07-08T02:47:56;98757.38;;;27.30;44.29
18569;BME280;14780;48.316;-1.050;2023-07-08T02:50:41;98753.81;;;27.29;44.39
18569;BME280;14780;48.316;-1.050;2023-07-08T02:53:26;98750.06;;;27.25;44.46
18569;BME280;14780;48.316;-1.050;2023-07-08T02:56:10;98754.50;;;27.21;44.29
18569;BME280;14780;48.316;-1.050;2023-07-08T02:58:55;98749.84;;;27.22;44.29
18569;BME280;14780;48.316;-1.050;2023-07-08T03:01:40;98754.50;;;27.21;44.44
18569;BME280;14780;48.316;-1.050;2023-07-08T03:04:28;98761.63;;;27.22;44.23
18569;BME280;14780;48.316;-1.050;2023-07-08T03:07:14;98763.88;;;27.20;44.33
18569;BME280;14780;48.316;-1.050;2023-07-08T03:09:59;98747.19;;;27.17;44.39
18569;BME280;14780;48.316;-1.050;2023-07-08T03:12:44;98748.81;;;27.18;44.50
18569;BME280;14780;48.316;-1.050;2023-07-08T03:15:28;98744.16;;;27.18;44.20
18569;BME280;14780;48.316;-1.050;2023-07-08T03:18:13;98739.22;;;27.15;44.40
18569;BME280;14780;48.316;-1.050;2023-07-08T03:20:58;98751.63;;;27.13;44.47
18569;BME280;14780;48.316;-1.050;2023-07-08T03:23:42;98759.66;;;27.09;44.51
18569;BME280;14780;48.316;-1.050;2023-07-08T03:26:27;98768.91;;;27.13;44.43
18569;BME280;14780;48.316;-1.050;2023-07-08T03:29:17;98777.75;;;27.10;44.51
18569;BME280;14780;48.316;-1.050;2023-07-08T03:32:03;98772.56;;;27.09;44.33
18569;BME280;14780;48.316;-1.050;2023-07-08T03:34:48;98762.41;;;27.09;44.41
18569;BME280;14780;48.316;-1.050;2023-07-08T03:37:32;98763.50;;;27.08;44.35
18569;BME280;14780;48.316;-1.050;2023-07-08T03:40:17;98774.59;;;27.03;44.40
18569;BME280;14780;48.316;-1.050;2023-07-08T03:43:02;98773.19;;;27.06;44.41
18569;BME280;14780;48.316;-1.050;2023-07-08T03:45:47;98780.50;;;27.10;44.24
18569;BME280;14780;48.316;-1.050;2023-07-08T03:48:32;98779.19;;;27.08;44.42
18569;BME280;14780;48.316;-1.050;2023-07-08T03:51:29;98775.03;;;27.10;44.45
18569;BME280;14780;48.316;-1.050;2023-07-08T03:54:15;98782.72;;;27.08;44.48
18569;BME280;14780;48.316;-1.050;2023-07-08T03:56:59;98778.06;;;27.09;44.44
18569;BME280;14780;48.316;-1.050;2023-07-08T03:59:44;98780.88;;;27.04;44.52
18569;BME280;14780;48.316;-1.050;2023-07-08T04:02:28;98779.97;;;27.08;44.22
18569;BME280;14780;48.316;-1.050;2023-07-08T04:05:18;98785.78;;;27.07;44.47
18569;BME280;14780;48.316;-1.050;2023-07-08T04:08:04;98782.22;;;27.06;44.22
18569;BME280;14780;48.316;-1.050;2023-07-08T04:10:49;98780.09;;;27.03;44.24
18569;BME280;14780;48.316;-1.050;2023-07-08T04:13:33;98783.34;;;27.05;44.35
18569;BME280;14780;48.316;-1.050;2023-07-08T04:16:35;98792.69;;;27.04;44.43
18569;BME280;14780;48.316;-1.050;2023-07-08T04:19:21;98800.41;;;27.02;44.31
18569;BME280;14780;48.316;-1.050;2023-07-08T04:22:08;98795.22;;;27.01;44.44
18569;BME280;14780;48.316;-1.050;2023-07-08T04:24:53;98788.00;;;27.05;44.27
18569;BME280;14780;48.316;-1.050;2023-07-08T04:27:38;98785.56;;;27.03;44.44
18569;BME280;14780;48.316;-1.050;2023-07-08T04:30:25;98791.66;;;27.00;44.36
18569;BME280;14780;48.316;-1.050;2023-07-08T04:33:14;98799.38;;;26.98;44.43
18569;BME280;14780;48.316;-1.050;2023-07-08T04:35:59;98805.09;;;27.02;44.38
18569;BME280;14780;48.316;-1.050;2023-07-08T04:38:44;98812.81;;;27.00;44.40
18569;BME280;14780;48.316;-1.050;2023-07-08T04:41:31;98803.53;;;26.96;44.59
18569;BME280;14780;48.316;-1.050;2023-07-08T04:44:16;98803.03;;;26.94;44.62
18569;BME280;14780;48.316;-1.050;2023-07-08T04:47:03;98805.16;;;26.97;44.57
18569;BME280;14780;48.316;-1.050;2023-07-08T04:49:48;98815.25;;;27.01;44.49
18569;BME280;14780;48.316;-1.050;2023-07-08T04:52:33;98811.78;;;26.96;44.67
18569;BME280;14780;48.316;-1.050;2023-07-08T04:55:18;98824.59;;;27.00;44.46
18569;BME280;14780;48.316;-1.050;2023-07-08T04:58:04;98826.53;;;27.00;44.46
18569;BME280;14780;48.316;-1.050;2023-07-08T05:00:48;98824.59;;;27.00;44.48
18569;BME280;14780;48.316;-1.050;2023-07-08T05:03:33;98838.88;;;27.02;44.56
18569;BME280;14780;48.316;-1.050;2023-07-08T05:06:17;98841.06;;;27.00;44.48
18569;BME280;14780;48.316;-1.050;2023-07-08T05:09:03;98843.13;;;27.08;44.28
18569;BME280;14780;48.316;-1.050;2023-07-08T05:11:48;98851.47;;;27.03;44.32
18569;BME280;14780;48.316;-1.050;2023-07-08T05:14:32;98857.53;;;27.00;44.55
18569;BME280;14780;48.316;-1.050;2023-07-08T05:17:17;98852.59;;;27.02;44.44
18569;BME280;14780;48.316;-1.050;2023-07-08T05:20:02;98850.34;;;27.04;44.33
18569;BME280;14780;48.316;-1.050;2023-07-08T05:22:48;98853.41;;;27.03;44.30
18569;BME280;14780;48.316;-1.050;2023-07-08T05:25:34;98849.84;;;27.02;44.46
18569;BME280;14780;48.316;-1.050;2023-07-08T05:28:19;98860.84;;;27.02;44.35
18569;BME280;14780;48.316;-1.050;2023-07-08T05:31:06;98868.47;;;27.05;44.43
18569;BME280;14780;48.316;-1.050;2023-07-08T05:33:51;98876.47;;;27.02;44.55
18569;BME280;14780;48.316;-1.050;2023-07-08T05:36:36;98901.47;;;27.00;44.36
18569;BME280;14780;48.316;-1.050;2023-07-08T05:39:21;98914.75;;;26.93;44.51
18569;BME280;14780;48.316;-1.050;2023-07-08T05:42:06;98920.25;;;26.93;44.67
18569;BME280;14780;48.316;-1.050;2023-07-08T05:44:51;98916.94;;;26.96;44.66
18569;BME280;14780;48.316;-1.050;2023-07-08T05:47:37;98922.72;;;26.95;44.54
18569;BME280;14780;48.316;-1.050;2023-07-08T05:50:22;98930.50;;;26.88;44.73
18569;BME280;14780;48.316;-1.050;2023-07-08T05:53:10;98920.34;;;26.88;44.65
18569;BME280;14780;48.316;-1.050;2023-07-08T05:55:55;98923.97;;;26.84;44.82
18569;BME280;14780;48.316;-1.050;2023-07-08T05:58:39;98928.59;;;26.88;44.58
18569;BME280;14780;48.316;-1.050;2023-07-08T06:01:24;98944.75;;;26.90;44.61
18569;BME280;14780;48.316;-1.050;2023-07-08T06:04:08;98953.53;;;26.92;44.66
18569;BME280;14780;48.316;-1.050;2023-07-08T06:06:53;98948.38;;;26.85;44.77
18569;BME280;14780;48.316;-1.050;2023-07-08T06:09:37;98944.50;;;26.86;44.93
18569;BME280;14780;48.316;-1.050;2023-07-08T06:12:22;98941.19;;;26.89;44.63
18569;BME280;14780;48.316;-1.050;2023-07-08T06:15:09;98945.56;;;26.90;44.56
18569;BME280;14780;48.316;-1.050;2023-07-08T06:17:53;98943.94;;;26.89;44.61
18569;BME280;14780;48.316;-1.050;2023-07-08T06:20:38;98946.91;;;26.93;44.52
18569;BME280;14780;48.316;-1.050;2023-07-08T06:23:23;98950.16;;;26.95;44.49
18569;BME280;14780;48.316;-1.050;2023-07-08T06:26:08;98953.28;;;26.88;44.62
18569;BME280;14780;48.316;-1.050;2023-07-08T06:28:53;98965.91;;;26.89;44.38
18569;BME280;14780;48.316;-1.050;2023-07-08T06:31:37;98948.59;;;26.89;44.67
18569;BME280;14780;48.316;-1.050;2023-07-08T06:34:22;98952.75;;;26.86;44.37
18569;BME280;14780;48.316;-1.050;2023-07-08T06:37:08;98959.28;;;26.90;44.51
18569;BME280;14780;48.316;-1.050;2023-07-08T06:39:53;98954.91;;;26.89;44.76
18569;BME280;14780;48.316;-1.050;2023-07-08T06:42:38;98948.91;;;26.87;44.75
18569;BME280;14780;48.316;-1.050;2023-07-08T06:45:22;98935.75;;;26.84;44.88
18569;BME280;14780;48.316;-1.050;2023-07-08T06:48:07;98903.66;;;26.85;44.49
18569;BME280;14780;48.316;-1.050;2023-07-08T06:50:52;98882.50;;;26.85;44.63
18569;BME280;14780;48.316;-1.050;2023-07-08T06:53:36;98893.78;;;26.84;45.00
18569;BME280;14780;48.316;-1.050;2023-07-08T06:56:21;98900.59;;;26.86;44.55
18569;BME280;14780;48.316;-1.050;2023-07-08T06:59:09;98897.63;;;26.83;44.77
18569;BME280;14780;48.316;-1.050;2023-07-08T07:01:54;98894.38;;;26.81;44.52
18569;BME280;14780;48.316;-1.050;2023-07-08T07:04:39;98895.69;;;26.83;44.49
18569;BME280;14780;48.316;-1.050;2023-07-08T07:07:24;98898.16;;;26.85;44.92
18569;BME280;14780;48.316;-1.050;2023-07-08T07:10:09;98886.28;;;26.89;44.53
18569;BME280;14780;48.316;-1.050;2023-07-08T07:12:54;98887.97;;;26.85;44.86
18569;BME280;14780;48.316;-1.050;2023-07-08T07:15:39;98891.84;;;26.84;44.62
18569;BME280;14780;48.316;-1.050;2023-07-08T07:18:23;98884.13;;;26.86;44.78
18569;BME280;14780;48.316;-1.050;2023-07-08T07:21:08;98854.47;;;26.88;44.87
18569;BME280;14780;48.316;-1.050;2023-07-08T07:23:53;98838.94;;;26.79;44.79
18569;BME280;14780;48.316;-1.050;2023-07-08T07:26:38;98828.31;;;26.72;45.07
18569;BME280;14780;48.316;-1.050;2023-07-08T07:29:23;98857.22;;;26.70;45.13
18569;BME280;14780;48.316;-1.050;2023-07-08T07:32:09;98829.53;;;26.66;45.31
18569;BME280;14780;48.316;-1.050;2023-07-08T07:34:55;98814.09;;;26.70;45.32
18569;BME280;14780;48.316;-1.050;2023-07-08T07:37:41;98816.09;;;26.65;45.03
18569;BME280;14780;48.316;-1.050;2023-07-08T07:40:26;98822.38;;;26.65;45.37
18569;BME280;14780;48.316;-1.050;2023-07-08T07:43:11;98811.41;;;26.65;45.53
18569;BME280;14780;48.316;-1.050;2023-07-08T07:45:56;98816.59;;;26.67;45.17
18569;BME280;14780;48.316;-1.050;2023-07-08T07:48:41;98829.00;;;26.64;45.22
18569;BME280;14780;48.316;-1.050;2023-07-08T07:51:26;98836.66;;;26.67;45.21
18569;BME280;14780;48.316;-1.050;2023-07-08T07:54:11;98869.38;;;26.64;45.16
18569;BME280;14780;48.316;-1.050;2023-07-08T07:56:56;98878.34;;;26.69;45.46
18569;BME280;14780;48.316;-1.050;2023-07-08T07:59:40;98883.00;;;26.69;45.18
18569;BME280;14780;48.316;-1.050;2023-07-08T08:02:25;98910.16;;;26.70;45.32
18569;BME280;14780;48.316;-1.050;2023-07-08T08:05:09;98928.69;;;26.78;44.86
18569;BME280;14780;48.316;-1.050;2023-07-08T08:07:55;98941.41;;;26.74;44.97
18569;BME280;14780;48.316;-1.050;2023-07-08T08:10:39;98946.06;;;26.74;45.18
18569;BME280;14780;48.316;-1.050;2023-07-08T08:13:24;98926.28;;;26.77;45.04
18569;BME280;14780;48.316;-1.050;2023-07-08T08:16:09;98907.41;;;26.70;45.56
18569;BME280;14780;48.316;-1.050;2023-07-08T08:18:53;98888.25;;;26.65;45.38
18569;BME280;14780;48.316;-1.050;2023-07-08T08:21:38;98834.66;;;26.73;45.40
18569;BME280;14780;48.316;-1.050;2023-07-08T08:24:23;98845.47;;;26.64;45.68
18569;BME280;14780;48.316;-1.050;2023-07-08T08:27:08;98848.66;;;26.71;45.77
18569;BME280;14780;48.316;-1.050;2023-07-08T08:29:52;98857.78;;;26.67;46.12
18569;BME280;14780;48.316;-1.050;2023-07-08T08:32:37;98836.28;;;26.50;48.03
18569;BME280;14780;48.316;-1.050;2023-07-08T08:35:22;98855.00;;;26.48;48.58
18569;BME280;14780;48.316;-1.050;2023-07-08T08:38:08;98888.28;;;26.42;49.77
18569;BME280;14780;48.316;-1.050;2023-07-08T08:40:52;98907.25;;;26.38;50.33
18569;BME280;14780;48.316;-1.050;2023-07-08T08:43:39;98918.00;;;26.35;50.86
18569;BME280;14780;48.316;-1.050;2023-07-08T08:52:06;98949.53;;;26.37;51.85
18569;BME280;14780;48.316;-1.050;2023-07-08T08:54:51;98975.84;;;26.38;52.26
18569;BME280;14780;48.316;-1.050;2023-07-08T08:57:49;98989.88;;;26.32;52.43
18569;BME280;14780;48.316;-1.050;2023-07-08T09:00:53;98983.59;;;26.31;53.13
18569;BME280;14780;48.316;-1.050;2023-07-08T09:04:02;98995.09;;;26.33;53.16
18569;BME280;14780;48.316;-1.050;2023-07-08T09:06:50;98983.63;;;26.26;53.42
18569;BME280;14780;48.316;-1.050;2023-07-08T09:09:55;98958.91;;;26.31;52.91
18569;BME280;14780;48.316;-1.050;2023-07-08T09:12:46;98978.06;;;26.08;53.75
18569;BME280;14780;48.316;-1.050;2023-07-08T09:15:33;98999.34;;;26.21;52.72
18569;BME280;14780;48.316;-1.050;2023-07-08T09:18:27;99015.28;;;26.19;53.63
18569;BME280;14780;48.316;-1.050;2023-07-08T09:21:21;99003.94;;;26.25;53.08
18569;BME280;14780;48.316;-1.050;2023-07-08T09:24:19;99045.84;;;26.31;52.74
18569;BME280;14780;48.316;-1.050;2023-07-08T09:27:07;99053.22;;;26.35;52.21
18569;BME280;14780;48.316;-1.050;2023-07-08T09:29:52;99032.91;;;26.36;52.89
18569;BME280;14780;48.316;-1.050;2023-07-08T09:32:38;99035.56;;;26.46;51.60
18569;BME280;14780;48.316;-1.050;2023-07-08T09:35:28;99042.16;;;26.45;52.54
18569;BME280;14780;48.316;-1.050;2023-07-08T09:38:17;99052.47;;;26.58;51.17
18569;BME280;14780;48.316;-1.050;2023-07-08T09:41:02;99045.34;;;26.57;51.92
18569;BME280;14780;48.316;-1.050;2023-07-08T09:43:47;99023.63;;;26.61;51.23
18569;BME280;14780;48.316;-1.050;2023-07-08T09:46:38;99034.53;;;26.66;51.32
18569;BME280;14780;48.316;-1.050;2023-07-08T09:52:12;99038.03;;;26.71;50.94
18569;BME280;14780;48.316;-1.050;2023-07-08T09:54:57;99032.03;;;26.69;51.54
18569;BME280;14780;48.316;-1.050;2023-07-08T09:57:44;99031.44;;;26.72;50.80
18569;BME280;14780;48.316;-1.050;2023-07-08T10:00:37;99039.63;;;26.77;50.62
18569;BME280;14780;48.316;-1.050;2023-07-08T10:03:25;99041.25;;;26.78;51.07
18569;BME280;14780;48.316;-1.050;2023-07-08T10:06:22;99049.81;;;26.77;50.90
18569;BME280;14780;48.316;-1.050;2023-07-08T10:09:21;99054.69;;;26.80;50.41
18569;BME280;14780;48.316;-1.050;2023-07-08T10:12:11;99056.84;;;26.83;50.67
18569;BME280;14780;48.316;-1.050;2023-07-08T10:15:03;99049.44;;;26.83;50.19
18569;BME280;14780;48.316;-1.050;2023-07-08T10:17:51;99052.19;;;26.83;50.72
18569;BME280;14780;48.316;-1.050;2023-07-08T10:24:07;99054.34;;;26.86;50.38
18569;BME280;14780;48.316;-1.050;2023-07-08T10:36:51;99086.53;;;27.04;50.50
18569;BME280;14780;48.316;-1.050;2023-07-08T11:06:45;99078.38;;;26.94;50.70
18569;BME280;14780;48.316;-1.050;2023-07-08T11:09:55;99074.19;;;27.02;49.53
18569;BME280;14780;48.316;-1.050;2023-07-08T11:12:57;99080.53;;;27.02;49.68
18569;BME280;14780;48.316;-1.050;2023-07-08T11:15:58;99083.78;;;27.04;50.06
18569;BME280;14780;48.316;-1.050;2023-07-08T11:21:52;99084.31;;;27.06;48.57
18569;BME280;14780;48.316;-1.050;2023-07-08T11:24:49;99085.88;;;27.12;48.34
18569;BME280;14780;48.316;-1.050;2023-07-08T11:27:39;99099.09;;;27.10;48.40
18569;BME280;14780;48.316;-1.050;2023-07-08T11:30:29;99092.97;;;27.18;48.21
18569;BME280;14780;48.316;-1.050;2023-07-08T11:33:15;99090.22;;;27.18;48.00
18569;BME280;14780;48.316;-1.050;2023-07-08T11:36:03;99094.09;;;27.17;47.65
18569;BME280;14780;48.316;-1.050;2023-07-08T11:38:53;99090.22;;;27.18;48.05
18569;BME280;14780;48.316;-1.050;2023-07-08T11:41:39;99095.13;;;27.21;47.83
18569;BME280;14780;48.316;-1.050;2023-07-08T11:44:23;99097.16;;;27.11;48.09
18569;BME280;14780;48.316;-1.050;2023-07-08T11:47:21;99099.66;;;27.07;47.48
18569;BME280;14780;48.316;-1.050;2023-07-08T11:50:31;99090.00;;;27.15;47.57
18569;BME280;14780;48.316;-1.050;2023-07-08T11:59:18;99086.81;;;27.26;47.11
18569;BME280;14780;48.316;-1.050;2023-07-08T12:05:11;99090.56;;;27.35;46.85
18569;BME280;14780;48.316;-1.050;2023-07-08T12:07:57;99089.59;;;27.45;46.79
18569;BME280;14780;48.316;-1.050;2023-07-08T12:10:51;99087.06;;;27.48;46.94
18569;BME280;14780;48.316;-1.050;2023-07-08T12:13:37;99092.56;;;27.48;46.69
18569;BME280;14780;48.316;-1.050;2023-07-08T12:16:22;99095.84;;;27.50;46.56
18569;BME280;14780;48.316;-1.050;2023-07-08T12:19:07;99091.41;;;27.54;46.55
18569;BME280;14780;48.316;-1.050;2023-07-08T12:21:56;99083.09;;;27.59;46.62
18569;BME280;14780;48.316;-1.050;2023-07-08T12:24:41;99085.22;;;27.62;46.24
18569;BME280;14780;48.316;-1.050;2023-07-08T12:27:26;99082.41;;;27.67;46.82
18569;BME280;14780;48.316;-1.050;2023-07-08T12:30:11;99084.84;;;27.69;46.09
18569;BME280;14780;48.316;-1.050;2023-07-08T12:32:57;99083.16;;;27.73;46.50
18569;BME280;14780;48.316;-1.050;2023-07-08T12:35:46;99083.91;;;27.78;46.45
18569;BME280;14780;48.316;-1.050;2023-07-08T12:38:38;99079.25;;;27.79;46.10
18569;BME280;14780;48.316;-1.050;2023-07-08T12:41:32;99087.72;;;27.82;46.31
18569;BME280;14780;48.316;-1.050;2023-07-08T12:44:21;99096.41;;;27.89;46.22
18569;BME280;14780;48.316;-1.050;2023-07-08T12:47:07;99085.31;;;27.94;45.83
18569;BME280;14780;48.316;-1.050;2023-07-08T12:49:53;99085.19;;;27.86;46.43
18569;BME280;14780;48.316;-1.050;2023-07-08T12:52:38;99096.91;;;27.91;46.31
18569;BME280;14780;48.316;-1.050;2023-07-08T12:55:24;99089.50;;;27.92;46.30
18569;BME280;14780;48.316;-1.050;2023-07-08T12:58:22;99086.88;;;28.00;45.76
18569;BME280;14780;48.316;-1.050;2023-07-08T13:01:19;99083.00;;;28.01;45.19
18569;BME280;14780;48.316;-1.050;2023-07-08T13:04:06;99082.25;;;28.14;46.02
18569;BME280;14780;48.316;-1.050;2023-07-08T13:06:54;99085.34;;;28.26;46.75
18569;BME280;14780;48.316;-1.050;2023-07-08T13:09:44;99097.38;;;28.30;46.31
18569;BME280;14780;48.316;-1.050;2023-07-08T13:12:32;99098.94;;;28.36;46.46
18569;BME280;14780;48.316;-1.050;2023-07-08T13:15:31;99088.59;;;28.28;46.08
18569;BME280;14780;48.316;-1.050;2023-07-08T13:18:34;99086.38;;;28.30;46.22
18569;BME280;14780;48.316;-1.050;2023-07-08T13:21:19;99091.53;;;28.37;45.90
18569;BME280;14780;48.316;-1.050;2023-07-08T13:24:11;99092.53;;;28.41;46.07
18569;BME280;14780;48.316;-1.050;2023-07-08T13:26:56;99092.47;;;28.46;45.92
18569;BME280;14780;48.316;-1.050;2023-07-08T13:29:42;99089.00;;;28.40;45.63
18569;BME280;14780;48.316;-1.050;2023-07-08T13:32:33;99090.53;;;28.46;45.51
18569;BME280;14780;48.316;-1.050;2023-07-08T13:35:28;99081.44;;;28.46;45.46
18569;BME280;14780;48.316;-1.050;2023-07-08T13:38:25;99080.31;;;28.47;45.64
18569;BME280;14780;48.316;-1.050;2023-07-08T13:41:19;99088.88;;;28.45;45.46
18569;BME280;14780;48.316;-1.050;2023-07-08T13:44:06;99088.88;;;28.45;45.80
18569;BME280;14780;48.316;-1.050;2023-07-08T13:46:55;99093.78;;;28.48;45.57
18569;BME280;14780;48.316;-1.050;2023-07-08T13:49:44;99096.63;;;28.43;45.60
18569;BME280;14780;48.316;-1.050;2023-07-08T13:52:29;99097.47;;;28.44;45.69
18569;BME280;14780;48.316;-1.050;2023-07-08T13:55:18;99086.34;;;28.49;45.59
18569;BME280;14780;48.316;-1.050;2023-07-08T13:58:03;99089.91;;;28.49;45.33
18569;BME280;14780;48.316;-1.050;2023-07-08T14:00:50;99083.59;;;28.49;45.43
18569;BME280;14780;48.316;-1.050;2023-07-08T14:03:35;99085.81;;;28.47;45.04
18569;BME280;14780;48.316;-1.050;2023-07-08T14:06:25;99082.78;;;28.48;44.62
18569;BME280;14780;48.316;-1.050;2023-07-08T14:09:15;99076.38;;;28.53;45.07
18569;BME280;14780;48.316;-1.050;2023-07-08T14:12:01;99078.28;;;28.52;44.98
18569;BME280;14780;48.316;-1.050;2023-07-08T14:14:47;99083.28;;;28.50;45.05
18569;BME280;14780;48.316;-1.050;2023-07-08T14:17:32;99082.50;;;28.50;44.90
18569;BME280;14780;48.316;-1.050;2023-07-08T14:20:18;99087.66;;;28.51;44.85
18569;BME280;14780;48.316;-1.050;2023-07-08T14:23:03;99076.66;;;28.51;44.92
18569;BME280;14780;48.316;-1.050;2023-07-08T14:25:48;99077.19;;;28.53;45.01
18569;BME280;14780;48.316;-1.050;2023-07-08T14:28:32;99078.72;;;28.59;45.03
18569;BME280;14780;48.316;-1.050;2023-07-08T14:31:22;99080.66;;;28.59;44.54
18569;BME280;14780;48.316;-1.050;2023-07-08T14:34:12;99078.72;;;28.59;44.49
18569;BME280;14780;48.316;-1.050;2023-07-08T14:36:57;99079.75;;;28.63;44.86
18569;BME280;14780;48.316;-1.050;2023-07-08T14:39:43;99078.91;;;28.63;44.57
18569;BME280;14780;48.316;-1.050;2023-07-08T14:42:28;99080.88;;;28.62;44.99
18569;BME280;14780;48.316;-1.050;2023-07-08T14:45:13;99090.75;;;28.63;44.78
18569;BME280;14780;48.316;-1.050;2023-07-08T14:47:57;99093.59;;;28.58;44.82
18569;BME280;14780;48.316;-1.050;2023-07-08T14:50:42;99088.09;;;28.58;44.81
18569;BME280;14780;48.316;-1.050;2023-07-08T14:53:27;99090.75;;;28.63;44.61
18569;BME280;14780;48.316;-1.050;2023-07-08T14:56:15;99088.94;;;28.59;44.17
18569;BME280;14780;48.316;-1.050;2023-07-08T14:59:00;99080.97;;;28.57;44.52
18569;BME280;14780;48.316;-1.050;2023-07-08T15:01:45;99090.75;;;28.63;44.37
18569;BME280;14780;48.316;-1.050;2023-07-08T15:04:30;99085.88;;;28.60;44.06
18569;BME280;14780;48.316;-1.050;2023-07-08T15:07:14;99085.25;;;28.63;44.44
18569;BME280;14780;48.316;-1.050;2023-07-08T15:10:00;99086.25;;;28.67;44.54
18569;BME280;14780;48.316;-1.050;2023-07-08T15:12:45;99088.13;;;28.72;44.18
18569;BME280;14780;48.316;-1.050;2023-07-08T15:15:33;99086.81;;;28.69;44.19
18569;BME280;14780;48.316;-1.050;2023-07-08T15:18:24;99087.31;;;28.71;44.49
18569;BME280;14780;48.316;-1.050;2023-07-08T15:21:11;99085.06;;;28.73;44.39
18569;BME280;14780;48.316;-1.050;2023-07-08T15:23:56;99076.28;;;28.71;44.19
18569;BME280;14780;48.316;-1.050;2023-07-08T15:26:43;99086.69;;;28.74;44.16
18569;BME280;14780;48.316;-1.050;2023-07-08T15:29:29;99077.31;;;28.75;44.22
18569;BME280;14780;48.316;-1.050;2023-07-08T15:32:14;99073.66;;;28.80;44.18
18569;BME280;14780;48.316;-1.050;2023-07-08T15:35:00;99070.47;;;28.86;44.18
18569;BME280;14780;48.316;-1.050;2023-07-08T15:37:46;99061.50;;;28.81;43.95
18569;BME280;14780;48.316;-1.050;2023-07-08T15:40:32;99064.88;;;28.77;44.03